Time;durP1;ratioP1;P1;durP2;ratioP2;P2;SDS_P1;SDS_P2;PMS_P1;PMS_P2;Temp;Humidity;BMP_temperature;BMP_pressure;BME280_temperature;BME280_humidity;BME280_pressure;Samples;Min_cycle;Max_cycle;Signal;HPM_P1;HPM_P2
2021/11/25 00:00:54;;;;;;;17.95;10.13;;;;;;;7.68;59.29;101372.28;4942467;28;124219;-65
2021/11/25 00:03:21;;;;;;;18.63;9.95;;;;;;;7.62;58.99;101361.91;4934542;28;110024;-63
2021/11/25 00:05:48;;;;;;;18.58;10.68;;;;;;;7.56;58.80;101358.50;4923956;28;109483;-63
2021/11/25 00:08:17;;;;;;;16.42;9.77;;;;;;;7.50;59.19;101350.75;4929282;28;124461;-62
2021/11/25 00:10:45;;;;;;;16.83;9.80;;;;;;;7.46;59.09;101346.47;4931990;28;125151;-62
2021/11/25 00:13:13;;;;;;;15.57;9.25;;;;;;;7.40;59.26;101351.84;4944798;28;111660;-62
2021/11/25 00:15:41;;;;;;;17.45;9.57;;;;;;;7.35;59.20;101348.50;4938035;28;109729;-62
2021/11/25 00:18:09;;;;;;;16.60;9.30;;;;;;;7.31;59.29;101346.81;4931728;28;123829;-63
2021/11/25 00:20:36;;;;;;;14.95;9.18;;;;;;;7.25;59.34;101347.81;4930220;28;124028;-63
2021/11/25 00:23:03;;;;;;;17.50;9.35;;;;;;;7.16;58.92;101343.63;4915036;28;109307;-63
2021/11/25 00:25:30;;;;;;;16.45;8.93;;;;;;;7.08;58.78;101340.28;4928925;28;108993;-63
2021/11/25 00:27:58;;;;;;;17.10;9.10;;;;;;;7.00;58.80;101343.09;4922103;28;123993;-63
2021/11/25 00:30:25;;;;;;;15.45;9.20;;;;;;;6.93;59.12;101330.09;4943120;28;122815;-62
2021/11/25 00:32:52;;;;;;;19.20;9.07;;;;;;;6.86;59.18;101333.81;4944597;28;108666;-62
2021/11/25 00:35:20;;;;;;;16.15;8.98;;;;;;;6.78;59.21;101331.31;4934188;28;109132;-62
2021/11/25 00:37:47;;;;;;;15.10;8.93;;;;;;;6.71;58.94;101325.31;4936975;28;124223;-62
2021/11/25 00:40:17;;;;;;;14.82;8.75;;;;;;;6.64;59.08;101328.97;4919429;28;124229;-61
2021/11/25 00:42:45;;;;;;;17.02;9.02;;;;;;;6.57;58.88;101332.63;4905576;28;108012;-62
2021/11/25 00:45:14;;;;;;;17.48;8.77;;;;;;;6.52;59.01;101331.88;4925334;28;108412;-62
2021/11/25 00:47:41;;;;;;;16.88;8.95;;;;;;;6.46;59.23;101334.59;4920318;28;124418;-62
2021/11/25 00:50:11;;;;;;;16.85;9.38;;;;;;;6.39;59.10;101329.47;4934241;28;123739;-62
2021/11/25 00:52:39;;;;;;;16.08;8.93;;;;;;;6.33;59.34;101324.34;4923029;28;109172;-62
2021/11/25 00:55:06;;;;;;;15.80;8.90;;;;;;;6.28;59.28;101331.44;4921069;28;109524;-62
2021/11/25 00:57:34;;;;;;;18.38;9.48;;;;;;;6.24;59.26;101329.78;4919388;28;123838;-62
2021/11/25 01:00:03;;;;;;;15.07;9.20;;;;;;;6.19;59.35;101336.88;4947276;28;124591;-62
2021/11/25 01:02:30;;;;;;;15.35;8.75;;;;;;;6.15;59.07;101335.22;4927318;28;109974;-62
2021/11/25 01:04:58;;;;;;;16.05;9.30;;;;;;;6.10;59.19;101329.16;4930756;28;110145;-61
2021/11/25 01:07:25;;;;;;;17.45;9.00;;;;;;;6.07;59.17;101337.13;4916544;28;124460;-62
2021/11/25 01:09:52;;;;;;;17.48;9.05;;;;;;;6.02;59.47;101338.06;4937236;28;123685;-62
2021/11/25 01:12:20;;;;;;;15.52;9.10;;;;;;;5.99;59.25;101335.50;4946117;28;108128;-62
2021/11/25 01:14:47;;;;;;;16.65;8.75;;;;;;;5.96;59.29;101332.91;4930599;28;107904;-61
2021/11/25 01:17:15;;;;;;;14.40;8.45;;;;;;;5.93;59.26;101340.81;4926165;28;124099;-61
2021/11/25 01:19:42;;;;;;;15.68;8.55;;;;;;;5.89;59.22;101339.13;4937222;28;123526;-62
2021/11/25 01:22:09;;;;;;;16.33;9.23;;;;;;;5.87;59.29;101335.66;4945626;28;108360;-62
2021/11/25 01:24:38;;;;;;;17.08;8.93;;;;;;;5.84;59.33;101341.00;4947294;28;109400;-64
2021/11/25 01:27:05;;;;;;;15.40;9.32;;;;;;;5.79;59.53;101337.56;4934749;28;124301;-62
2021/11/25 01:29:33;;;;;;;17.02;8.85;;;;;;;5.74;59.59;101329.75;4948147;28;123120;-62
2021/11/25 01:32:00;;;;;;;17.05;8.85;;;;;;;5.71;59.39;101328.94;4931527;28;109364;-62
2021/11/25 01:34:27;;;;;;;16.02;8.35;;;;;;;5.65;59.22;101320.28;4935678;28;109377;-63
2021/11/25 01:36:54;;;;;;;15.80;8.85;;;;;;;5.61;59.67;101318.59;4941994;28;124074;-62
2021/11/25 01:39:21;;;;;;;15.38;9.05;;;;;;;5.59;59.50;101323.00;4942914;28;123871;-63
2021/11/25 01:41:49;;;;;;;19.00;9.38;;;;;;;5.57;59.43;101326.56;4944724;28;109123;-62
2021/11/25 01:44:16;;;;;;;16.30;9.18;;;;;;;5.54;59.39;101319.59;4939914;28;109694;-63
2021/11/25 01:46:44;;;;;;;16.40;9.40;;;;;;;5.49;59.66;101313.53;4919216;28;124587;-63
2021/11/25 01:49:11;;;;;;;17.48;9.13;;;;;;;5.46;59.54;101313.59;4939025;28;124506;-63
2021/11/25 01:51:38;;;;;;;17.20;9.57;;;;;;;5.43;59.46;101308.41;4927073;28;110153;-62
2021/11/25 01:54:06;;;;;;;14.88;8.63;;;;;;;5.40;59.65;101313.69;4934540;28;110282;-63
2021/11/25 01:56:33;;;;;;;18.73;9.73;;;;;;;5.38;59.84;101315.47;4939457;28;124996;-63
2021/11/25 01:59:00;;;;;;;16.27;8.90;;;;;;;5.37;59.63;101313.72;4937145;28;122904;-63
2021/11/25 02:01:33;;;;;;;18.02;9.07;;;;;;;5.37;59.63;101324.22;4931133;28;109233;-63
2021/11/25 02:04:04;;;;;;;15.63;8.10;;;;;;;5.34;59.59;101319.06;4928972;28;109148;-63
2021/11/25 02:06:31;;;;;;;15.30;8.35;;;;;;;5.32;59.80;101312.97;4930023;28;124915;-62
2021/11/25 02:09:00;;;;;;;17.70;9.23;;;;;;;5.29;59.73;101315.63;4929536;28;123742;-62
2021/11/25 02:11:28;;;;;;;16.50;9.38;;;;;;;5.26;59.62;101320.03;4916385;28;109446;-62
2021/11/25 02:13:56;;;;;;;15.75;8.93;;;;;;;5.24;59.86;101313.94;4934058;28;106979;-63
2021/11/25 02:16:23;;;;;;;16.65;9.18;;;;;;;5.22;59.79;101310.47;4920665;28;124638;-62
2021/11/25 02:18:50;;;;;;;14.65;8.88;;;;;;;5.20;59.63;101307.00;4923627;28;124567;-62
2021/11/25 02:21:18;;;;;;;15.40;8.35;;;;;;;5.19;59.89;101305.25;4922165;28;108919;-62
2021/11/25 02:23:45;;;;;;;19.15;8.82;;;;;;;5.18;59.75;101303.53;4921112;28;109288;-62
2021/11/25 02:26:12;;;;;;;15.68;8.68;;;;;;;5.16;59.67;101289.56;4934734;28;123798;-62
2021/11/25 02:28:40;;;;;;;17.10;9.25;;;;;;;5.15;59.87;101286.97;4935198;28;124615;-62
2021/11/25 02:31:07;;;;;;;18.45;9.30;;;;;;;5.12;59.84;101285.22;4935809;28;115088;-61
2021/11/25 02:33:38;;;;;;;17.20;9.50;;;;;;;5.10;59.75;101284.38;4923500;28;113321;-62
2021/11/25 02:36:07;;;;;;;22.63;9.18;;;;;;;5.11;59.92;101274.78;4917058;28;123201;-62
2021/11/25 02:38:35;;;;;;;18.73;9.63;;;;;;;5.09;59.96;101272.16;4942925;28;124660;-62
2021/11/25 02:41:02;;;;;;;18.58;9.98;;;;;;;5.10;59.97;101268.63;4930549;28;115536;-61
2021/11/25 02:43:33;;;;;;;18.00;9.20;;;;;;;5.10;60.18;101268.63;4931517;28;114822;-61
2021/11/25 02:46:10;;;;;;;16.70;9.15;;;;;;;5.07;60.04;101273.94;4940480;28;124218;-62
2021/11/25 02:48:45;;;;;;;18.08;9.45;;;;;;;5.06;60.31;101272.19;4925544;28;125313;-62
2021/11/25 02:51:16;;;;;;;17.10;9.27;;;;;;;5.04;59.97;101268.75;4912828;28;114663;-61
2021/11/25 02:53:44;;;;;;;17.70;9.23;;;;;;;5.03;59.89;101264.41;4948956;28;114018;-61
2021/11/25 02:56:14;;;;;;;17.63;9.43;;;;;;;5.01;60.18;101271.41;4922994;28;124070;-61
2021/11/25 02:58:42;;;;;;;17.35;9.02;;;;;;;4.99;60.18;101265.31;4933833;28;124492;-61
2021/11/25 03:01:15;;;;;;;18.92;9.77;;;;;;;4.98;60.11;101268.84;4921443;28;114260;-61
2021/11/25 03:03:43;;;;;;;18.42;10.18;;;;;;;4.95;60.16;101263.63;4940802;28;113801;-61
2021/11/25 03:06:11;;;;;;;17.85;9.13;;;;;;;4.94;59.91;101261.91;4926772;28;123530;-61
2021/11/25 03:08:39;;;;;;;20.15;8.98;;;;;;;4.92;59.97;101258.44;4919274;28;123770;-62
2021/11/25 03:11:09;;;;;;;17.10;9.05;;;;;;;4.88;59.88;101263.72;4904452;28;113142;-62
2021/11/25 03:13:39;;;;;;;21.13;9.40;;;;;;;4.86;59.99;101256.78;4937834;28;114370;-62
2021/11/25 03:16:09;;;;;;;16.70;9.18;;;;;;;4.83;60.16;101252.41;4932760;28;123363;-62
2021/11/25 03:18:38;;;;;;;16.38;8.93;;;;;;;4.81;60.11;101245.47;4937865;28;125444;-64
2021/11/25 03:21:06;;;;;;;17.00;8.73;;;;;;;4.80;59.81;101248.97;4931703;28;114534;-62
2021/11/25 03:23:37;;;;;;;16.48;9.32;;;;;;;4.76;59.82;101245.50;4925821;28;113599;-62
2021/11/25 03:26:07;;;;;;;23.25;9.43;;;;;;;4.74;59.85;101255.16;4938363;28;123933;-62
2021/11/25 03:28:40;;;;;;;17.75;9.32;;;;;;;4.70;59.82;101253.50;4932901;28;124427;-61
2021/11/25 03:31:08;;;;;;;16.83;9.25;;;;;;;4.68;59.98;101256.13;4933423;28;114853;-62
2021/11/25 03:33:36;;;;;;;18.48;9.52;;;;;;;4.64;60.33;101246.56;4925729;28;115286;-62
2021/11/25 03:36:05;;;;;;;18.88;9.52;;;;;;;4.64;60.08;101243.09;4918169;28;125430;-61
2021/11/25 03:38:32;;;;;;;19.20;9.90;;;;;;;4.63;60.07;101241.34;4917942;28;124828;-61
2021/11/25 03:41:01;;;;;;;16.42;9.23;;;;;;;4.60;60.05;101230.91;4922637;28;114839;-61
2021/11/25 03:43:28;;;;;;;17.98;9.05;;;;;;;4.59;60.01;101229.16;4944871;28;112952;-61
2021/11/25 03:45:56;;;;;;;17.77;8.90;;;;;;;4.58;60.20;101232.69;4914325;28;124112;-61
2021/11/25 03:48:28;;;;;;;19.75;9.15;;;;;;;4.56;60.09;101230.09;4921731;28;124043;-61
2021/11/25 03:50:57;;;;;;;16.92;9.15;;;;;;;4.56;60.09;101223.94;4924008;28;114309;-62
2021/11/25 03:53:24;;;;;;;17.25;9.02;;;;;;;4.53;60.33;101219.63;4925163;28;114446;-61
2021/11/25 03:55:52;;;;;;;19.40;9.70;;;;;;;4.52;60.05;101214.38;4935539;28;123199;-61
2021/11/25 03:58:20;;;;;;;16.60;8.68;;;;;;;4.49;60.05;101213.53;4934502;28;124519;-62
2021/11/25 04:00:48;;;;;;;19.90;9.23;;;;;;;4.47;60.18;101215.31;4940555;28;113543;-61
2021/11/25 04:03:15;;;;;;;18.10;9.38;;;;;;;4.46;60.39;101212.72;4933687;28;114270;-62
2021/11/25 04:05:43;;;;;;;16.23;8.93;;;;;;;4.44;60.20;101210.13;4935256;28;123934;-62
2021/11/25 04:08:10;;;;;;;18.63;9.02;;;;;;;4.42;60.17;101206.66;4934534;28;124569;-62
2021/11/25 04:10:39;;;;;;;16.40;8.60;;;;;;;4.40;60.28;101213.66;4911102;28;114586;-62
2021/11/25 04:13:07;;;;;;;17.20;8.50;;;;;;;4.38;60.16;101212.81;4924698;28;112932;-62
2021/11/25 04:15:34;;;;;;;15.25;8.52;;;;;;;4.37;60.23;101213.72;4920295;28;123047;-62
2021/11/25 04:18:01;;;;;;;14.57;8.68;;;;;;;4.36;60.11;101211.97;4923525;28;124287;-62
2021/11/25 04:20:28;;;;;;;15.50;9.10;;;;;;;4.35;60.28;101199.78;4934465;28;114857;-63
2021/11/25 04:22:55;;;;;;;18.63;9.00;;;;;;;4.35;60.19;101189.28;4923489;28;115089;-62
2021/11/25 04:25:23;;;;;;;19.40;9.38;;;;;;;4.35;60.36;101178.81;4914248;28;124304;-62
2021/11/25 04:27:50;;;;;;;18.10;9.90;;;;;;;4.36;60.41;101170.03;4911115;28;123871;-62
2021/11/25 04:35:35;;;;;;;20.38;9.25;;;;;;;4.33;60.45;101172.69;4923086;28;123913;-61
2021/11/25 04:38:06;;;;;;;17.92;9.75;;;;;;;4.33;60.48;101184.94;4925215;28;123854;-62
2021/11/25 04:40:44;;;;;;;17.83;9.70;;;;;;;4.33;60.49;101170.06;4921896;28;114085;-61
2021/11/25 04:43:14;;;;;;;17.48;9.25;;;;;;;4.32;60.27;101184.06;4935042;28;113934;-62
2021/11/25 04:45:44;;;;;;;22.92;10.48;;;;;;;4.31;60.51;101184.94;4933340;28;124119;-63
2021/11/25 04:48:12;;;;;;;20.83;10.30;;;;;;;4.31;60.58;101182.31;4929307;28;123834;-63
2021/11/25 04:50:40;;;;;;;22.52;11.45;;;;;;;4.32;60.56;101172.72;4920526;28;114430;-62
2021/11/25 04:53:12;;;;;;;21.42;11.23;;;;;;;4.34;60.73;101170.94;4923503;28;113954;-63
2021/11/25 04:55:42;;;;;;;20.08;10.68;;;;;;;4.36;60.78;101167.41;4915764;28;124124;-63
2021/11/25 04:58:10;;;;;;;22.98;11.63;;;;;;;4.39;60.83;101170.00;4915892;28;123897;-63
2021/11/25 05:00:38;;;;;;;19.45;10.23;;;;;;;4.41;60.74;101178.72;4921292;28;113990;-64
2021/11/25 05:03:05;;;;;;;20.25;10.13;;;;;;;4.40;60.65;101182.19;4935856;28;113773;-63
2021/11/25 05:05:33;;;;;;;19.63;9.93;;;;;;;4.40;60.54;101197.94;4921229;28;124748;-62
2021/11/25 05:08:00;;;;;;;21.25;10.10;;;;;;;4.38;60.82;101199.72;4912515;28;123635;-63
2021/11/25 05:10:28;;;;;;;20.35;10.10;;;;;;;4.40;60.74;101197.94;4922110;28;115056;-62
2021/11/25 05:12:55;;;;;;;22.20;10.25;;;;;;;4.43;60.93;101191.81;4905649;28;114144;-62
2021/11/25 05:15:22;;;;;;;17.85;9.15;;;;;;;4.47;61.13;101199.59;4916117;28;123897;-62
2021/11/25 05:17:51;;;;;;;20.83;10.25;;;;;;;4.53;61.05;101197.78;4920431;28;124197;-62
2021/11/25 05:20:19;;;;;;;19.60;10.38;;;;;;;4.56;61.00;101197.72;4921222;28;114382;-62
2021/11/25 05:22:47;;;;;;;27.77;11.20;;;;;;;4.61;61.14;101191.50;4932950;28;113061;-63
2021/11/25 05:25:15;;;;;;;22.55;10.77;;;;;;;4.66;61.05;101194.09;4913153;28;123969;-63
2021/11/25 05:27:44;;;;;;;22.67;10.32;;;;;;;4.71;61.13;101202.75;4912045;28;123744;-62
2021/11/25 05:30:13;;;;;;;21.52;10.85;;;;;;;4.75;61.38;101196.56;4927559;28;114148;-62
2021/11/25 05:32:40;;;;;;;21.17;11.15;;;;;;;4.79;61.23;101190.38;4923530;28;113163;-62
2021/11/25 05:35:09;;;;;;;23.92;11.65;;;;;;;4.84;61.30;101199.06;4927463;28;124016;-62
2021/11/25 05:37:37;;;;;;;23.90;11.68;;;;;;;4.90;61.16;101202.44;4949054;28;123006;-62
2021/11/25 05:40:05;;;;;;;21.05;11.10;;;;;;;4.95;61.27;101205.88;4926308;28;114097;-62
2021/11/25 05:42:35;;;;;;;22.40;11.73;;;;;;;4.99;61.20;101187.44;4921847;28;115945;-62
2021/11/25 05:45:07;;;;;;;23.08;11.18;;;;;;;5.03;61.15;101177.78;4928396;28;124213;-62
2021/11/25 05:47:36;;;;;;;25.23;12.10;;;;;;;5.06;61.22;101186.44;4937724;28;122965;-62
2021/11/25 05:50:06;;;;;;;23.05;12.02;;;;;;;5.10;61.32;101189.88;4936807;28;113073;-62
2021/11/25 05:52:34;;;;;;;26.42;12.23;;;;;;;5.14;61.22;101196.84;4918587;28;114781;-62
2021/11/25 05:55:01;;;;;;;25.05;12.75;;;;;;;5.18;61.38;101193.25;4921392;28;123914;-62
2021/11/25 05:57:29;;;;;;;29.40;13.15;;;;;;;5.23;61.25;101193.16;4931868;28;123242;-62
2021/11/25 05:59:56;;;;;;;23.67;12.40;;;;;;;5.28;61.46;101193.09;4934191;28;113910;-62
2021/11/25 06:02:23;;;;;;;25.73;11.82;;;;;;;5.33;61.45;101196.50;4929591;28;115120;-62
2021/11/25 06:04:50;;;;;;;22.27;12.07;;;;;;;5.36;61.14;101196.44;4929302;28;122707;-62
2021/11/25 06:07:17;;;;;;;22.75;12.02;;;;;;;5.39;61.27;101196.41;4929418;28;123546;-62
2021/11/25 06:09:44;;;;;;;24.70;12.18;;;;;;;5.42;61.40;101185.81;4926055;28;114421;-63
2021/11/25 06:12:12;;;;;;;26.73;12.45;;;;;;;5.46;61.43;101198.00;4926026;28;114462;-62
2021/11/25 06:14:40;;;;;;;27.38;12.90;;;;;;;5.49;61.37;101192.69;4924696;28;124363;-62
2021/11/25 06:17:07;;;;;;;29.10;13.23;;;;;;;5.52;61.32;101197.91;4942717;28;123724;-62
2021/11/25 06:19:34;;;;;;;26.48;13.40;;;;;;;5.56;61.35;101198.72;4917582;28;114224;-62
2021/11/25 06:22:01;;;;;;;23.58;13.13;;;;;;;5.59;61.25;101198.66;4952378;28;113277;-62
2021/11/25 06:24:28;;;;;;;23.67;12.57;;;;;;;5.62;61.39;101193.34;4945200;28;123019;-62
2021/11/25 06:26:55;;;;;;;24.15;12.30;;;;;;;5.62;61.13;101191.56;4920047;28;123920;-62
2021/11/25 06:29:22;;;;;;;24.52;12.05;;;;;;;5.64;60.95;101186.28;4936996;28;113994;-62
2021/11/25 06:31:49;;;;;;;23.10;11.93;;;;;;;5.63;61.29;101185.44;4930798;28;113895;-62
2021/11/25 06:34:17;;;;;;;25.98;12.15;;;;;;;5.64;61.17;101166.13;4919258;28;124132;-63
2021/11/25 06:36:44;;;;;;;25.45;12.07;;;;;;;5.66;61.47;101172.22;4920944;28;123574;-62
2021/11/25 06:39:11;;;;;;;22.83;11.85;;;;;;;5.69;61.34;101173.06;4918473;28;114556;-62
2021/11/25 06:41:38;;;;;;;22.98;12.05;;;;;;;5.73;61.44;101164.25;4933594;28;113733;-62
2021/11/25 06:44:05;;;;;;;27.88;13.10;;;;;;;5.76;61.41;101148.41;4924668;28;124572;-62
2021/11/25 06:46:33;;;;;;;28.40;13.50;;;;;;;5.78;61.55;101146.59;4916647;28;123827;-62
2021/11/25 06:49:03;;;;;;;25.75;12.98;;;;;;;5.82;61.55;101153.50;4946118;28;114706;-62
2021/11/25 06:51:32;;;;;;;28.55;13.50;;;;;;;5.84;61.20;101146.50;4924866;28;115030;-62
2021/11/25 06:53:59;;;;;;;29.10;14.80;;;;;;;5.85;61.57;101137.69;4925686;28;124882;-62
2021/11/25 06:56:26;;;;;;;28.52;13.77;;;;;;;5.87;61.24;101140.31;4943091;28;122637;-62
2021/11/25 06:58:55;;;;;;;28.42;14.05;;;;;;;5.86;61.27;101134.19;4943459;28;115549;-62
2021/11/25 07:01:24;;;;;;;25.15;13.02;;;;;;;5.87;61.51;101125.38;4943820;28;114081;-62
2021/11/25 07:03:52;;;;;;;26.52;13.48;;;;;;;5.87;61.67;101125.38;4914866;28;122824;-62
2021/11/25 07:06:19;;;;;;;22.90;12.65;;;;;;;5.88;61.52;101121.88;4941267;28;124147;-62
2021/11/25 07:08:46;;;;;;;23.60;12.32;;;;;;;5.87;61.36;101120.13;4924221;28;114341;-62
2021/11/25 07:11:13;;;;;;;26.85;13.13;;;;;;;5.87;61.20;101128.00;4930508;28;113799;-62
2021/11/25 07:13:40;;;;;;;29.17;13.50;;;;;;;5.86;61.28;101123.66;4921447;28;123804;-62
2021/11/25 07:16:08;;;;;;;27.60;14.07;;;;;;;5.86;61.46;101123.66;4935391;28;122842;-62
2021/11/25 07:18:38;;;;;;;27.25;13.90;;;;;;;5.86;61.30;101118.41;4914408;28;114670;-62
2021/11/25 07:21:05;;;;;;;29.48;14.50;;;;;;;5.87;61.46;101117.50;4931724;28;113237;-62
2021/11/25 07:23:33;;;;;;;26.58;14.05;;;;;;;5.88;61.57;101116.63;4931435;28;123418;-62
2021/11/25 07:26:00;;;;;;;30.45;14.70;;;;;;;5.90;61.68;101104.31;4927782;28;123657;-61
2021/11/25 07:28:27;;;;;;;32.15;15.13;;;;;;;5.91;61.48;101106.00;4921740;28;114411;-62
2021/11/25 07:30:56;;;;;;;31.30;14.90;;;;;;;5.93;61.64;101120.00;4924967;28;114031;-62
2021/11/25 07:33:23;;;;;;;29.55;14.55;;;;;;;5.98;61.63;101118.16;4922783;28;124660;-62
2021/11/25 07:35:50;;;;;;;32.00;15.98;;;;;;;6.03;61.84;101126.81;4931907;28;123019;-62
2021/11/25 07:38:18;;;;;;;28.95;15.20;;;;;;;6.08;61.77;101129.34;4943091;28;115373;-62
2021/11/25 07:40:48;;;;;;;36.53;16.80;;;;;;;6.13;61.76;101126.63;4929183;28;115612;-61
2021/11/25 07:43:16;;;;;;;32.70;15.75;;;;;;;6.18;61.69;101114.25;4944137;28;123759;-61
2021/11/25 07:45:43;;;;;;;31.70;16.17;;;;;;;6.22;61.80;101126.44;4926895;28;123545;-61
2021/11/25 07:48:12;;;;;;;39.17;17.83;;;;;;;6.27;61.85;101129.78;4917941;28;114181;-61
2021/11/25 07:50:40;;;;;;;35.17;16.48;;;;;;;6.31;61.73;101134.13;4929535;28;114058;-61
2021/11/25 07:53:08;;;;;;;38.95;17.77;;;;;;;6.37;61.72;101141.84;4935160;28;123721;-61
2021/11/25 07:55:35;;;;;;;36.05;17.55;;;;;;;6.41;61.80;101133.00;4934522;28;124069;-61
2021/11/25 07:58:03;;;;;;;32.42;17.17;;;;;;;6.47;61.88;101131.13;4933219;28;114326;-61
2021/11/25 08:00:31;;;;;;;37.05;17.52;;;;;;;6.52;61.91;101139.78;4929111;28;114136;-61
2021/11/25 08:02:58;;;;;;;37.83;18.13;;;;;;;6.56;62.02;101136.19;4931937;28;124518;-61
2021/11/25 08:05:27;;;;;;;36.85;17.58;;;;;;;6.59;61.93;101136.97;4912405;28;123546;-61
2021/11/25 08:07:56;;;;;;;40.42;17.38;;;;;;;6.64;61.74;101142.09;4915968;28;113752;-62
2021/11/25 08:10:25;;;;;;;40.25;16.65;;;;;;;6.67;61.78;101139.41;4930847;28;113972;-61
2021/11/25 08:12:54;;;;;;;32.58;17.38;;;;;;;6.71;62.16;101141.06;4928906;28;123965;-61
2021/11/25 08:15:21;;;;;;;34.42;17.05;;;;;;;6.76;62.03;101139.19;4944403;28;122879;-62
2021/11/25 08:17:48;;;;;;;32.80;16.27;;;;;;;6.80;62.06;101138.22;4929846;28;114048;-62
2021/11/25 08:20:20;;;;;;;37.08;17.73;;;;;;;6.86;61.73;101144.25;4929666;28;114122;-63
2021/11/25 08:22:47;;;;;;;38.40;17.70;;;;;;;6.89;61.86;101149.41;4920616;28;124959;-63
2021/11/25 08:25:15;;;;;;;37.63;17.05;;;;;;;6.94;61.91;101142.25;4929673;28;124357;-63
2021/11/25 08:27:43;;;;;;;36.35;16.98;;;;;;;6.97;61.97;101140.44;4929388;28;115020;-63
2021/11/25 08:30:12;;;;;;;33.85;16.70;;;;;;;7.00;61.96;101136.84;4931331;28;115402;-62
2021/11/25 08:32:41;;;;;;;34.25;16.77;;;;;;;7.03;61.86;101139.41;4936254;28;122846;-63
2021/11/25 08:35:09;;;;;;;38.80;16.90;;;;;;;7.06;62.01;101131.41;4920335;28;123979;-63
2021/11/25 08:37:41;;;;;;;37.55;17.67;;;;;;;7.12;61.99;101148.81;4931201;28;114045;-63
2021/11/25 08:40:12;;;;;;;37.40;17.23;;;;;;;7.16;62.02;101153.97;4929274;28;113954;-63
2021/11/25 08:42:41;;;;;;;35.60;17.23;;;;;;;7.19;61.98;101159.16;4945139;28;125058;-63
2021/11/25 08:45:09;;;;;;;37.17;17.65;;;;;;;7.24;61.94;101160.81;4931022;28;124048;-63
2021/11/25 08:47:36;;;;;;;35.97;18.08;;;;;;;7.26;62.08;101153.75;4929096;28;114254;-63
2021/11/25 08:50:07;;;;;;;36.25;17.17;;;;;;;7.27;61.98;101152.81;4928447;28;114374;-63
2021/11/25 08:52:34;;;;;;;34.33;17.33;;;;;;;7.29;62.05;101143.09;4926691;28;124171;-63
2021/11/25 08:55:04;;;;;;;34.35;16.85;;;;;;;7.32;61.52;101148.31;4935131;28;96743;-62
2021/11/25 08:57:31;;;;;;;39.45;18.30;;;;;;;7.35;61.67;101140.34;4932115;28;114162;-62
2021/11/25 08:59:58;;;;;;;34.78;16.67;;;;;;;7.37;61.79;101141.16;4929064;28;114025;-62
2021/11/25 09:02:25;;;;;;;34.03;17.13;;;;;;;7.38;61.83;101137.59;4930693;28;123905;-62
2021/11/25 09:04:56;;;;;;;35.92;17.08;;;;;;;7.42;61.92;101139.22;4921065;28;124071;-62
2021/11/25 09:07:23;;;;;;;35.35;17.55;;;;;;;7.44;61.43;101137.44;4929857;28;114957;-62
2021/11/25 09:09:50;;;;;;;37.25;17.48;;;;;;;7.46;61.63;101140.91;4926700;28;112982;-63
2021/11/25 09:12:18;;;;;;;34.17;17.23;;;;;;;7.48;61.74;101133.81;4939401;28;123869;-62
2021/11/25 09:15:05;;;;;;;31.38;16.83;;;;;;;7.51;61.91;101122.31;4929400;28;123971;-63
2021/11/25 09:17:33;;;;;;;31.98;16.63;;;;;;;7.54;61.91;101131.00;4929520;28;115800;-63
2021/11/25 09:20:20;;;;;;;32.08;16.63;;;;;;;7.56;61.83;101121.28;4927621;28;115343;-62
2021/11/25 09:22:47;;;;;;;35.08;16.98;;;;;;;7.58;61.89;101122.09;4931206;28;123994;-62
2021/11/25 09:25:15;;;;;;;35.03;16.95;;;;;;;7.62;61.58;101122.03;4917776;28;123981;-63
2021/11/25 09:27:45;;;;;;;34.30;16.77;;;;;;;7.66;61.61;101128.94;4927279;28;115246;-63
2021/11/25 09:30:12;;;;;;;32.05;16.92;;;;;;;7.71;61.60;101127.03;4925457;28;114317;-63
2021/11/25 09:32:40;;;;;;;34.72;16.95;;;;;;;7.74;61.65;101134.84;4930133;28;124879;-62
2021/11/25 09:35:07;;;;;;;30.30;16.02;;;;;;;7.80;61.76;101129.41;4927986;28;123460;-63
2021/11/25 09:37:35;;;;;;;33.92;16.83;;;;;;;7.85;61.76;101127.47;4939254;28;114284;-63
2021/11/25 09:40:03;;;;;;;30.02;16.65;;;;;;;7.90;62.04;101125.59;4928473;28;113948;-63
2021/11/25 09:42:30;;;;;;;29.45;16.08;;;;;;;7.93;61.74;101119.34;4942114;28;123881;-62
2021/11/25 09:44:57;;;;;;;27.40;15.27;;;;;;;7.94;61.57;101121.94;4940746;28;123848;-61
2021/11/25 09:47:24;;;;;;;27.30;15.40;;;;;;;7.95;61.64;101123.69;4924275;28;115703;-62
2021/11/25 09:49:51;;;;;;;28.77;16.00;;;;;;;7.96;61.44;101114.84;4914566;28;112983;-61
2021/11/25 09:52:18;;;;;;;26.70;15.10;;;;;;;7.98;61.51;101123.56;4923176;28;124059;-62
2021/11/25 09:54:46;;;;;;;26.48;15.05;;;;;;;8.01;61.59;101137.59;4919107;28;123853;-61
2021/11/25 09:57:13;;;;;;;25.75;14.35;;;;;;;8.04;61.66;101137.50;4919938;28;114447;-61
2021/11/25 09:59:41;;;;;;;25.10;13.75;;;;;;;8.06;61.46;101143.59;4931506;28;113731;-61
2021/11/25 10:02:08;;;;;;;27.13;14.80;;;;;;;8.10;61.34;101147.84;4917821;28;124044;-61
2021/11/25 10:04:37;;;;;;;27.92;14.90;;;;;;;8.12;61.33;101140.78;4931799;28;123866;-61
2021/11/25 10:07:07;;;;;;;26.83;14.45;;;;;;;8.14;61.61;101134.53;4937259;28;115114;-61
2021/11/25 10:09:38;;;;;;;27.40;14.50;;;;;;;8.19;61.62;101139.66;4922684;28;115639;-61
2021/11/25 10:12:36;;;;;;;28.27;15.70;;;;;;;8.20;61.23;101136.13;4903767;28;122873;-61
2021/11/25 10:15:25;;;;;;;25.15;13.95;;;;;;;8.24;61.46;101136.91;4926980;28;124446;-61
2021/11/25 10:17:54;;;;;;;27.30;14.77;;;;;;;8.24;61.66;101129.84;4918176;28;114683;-61
2021/11/25 10:20:21;;;;;;;25.23;15.05;;;;;;;8.26;61.54;101137.72;4940156;28;112925;-61
2021/11/25 10:23:03;;;;;;;27.40;15.27;;;;;;;8.29;61.77;101130.56;4945989;28;125335;-61
2021/11/25 10:25:48;;;;;;;25.17;14.77;;;;;;;8.30;61.25;101129.66;4933523;28;123810;-61
2021/11/25 10:28:23;;;;;;;26.00;14.77;;;;;;;8.30;61.46;101129.66;4927215;28;114816;-61
2021/11/25 10:31:13;;;;;;;26.25;14.23;;;;;;;8.32;61.33;101148.94;4932977;28;114013;-60
2021/11/25 10:33:51;;;;;;;24.70;14.27;;;;;;;8.33;61.49;101140.13;4926044;28;124259;-61
2021/11/25 10:40:09;;;;;;;23.95;14.15;;;;;;;8.33;61.37;101134.84;4927705;28;114184;-61
2021/11/25 10:42:38;;;;;;;23.60;14.25;;;;;;;8.34;61.45;101135.69;4942490;28;114225;-61
2021/11/25 10:45:14;;;;;;;25.45;14.88;;;;;;;8.34;61.77;101126.03;4941022;28;124095;-62
2021/11/25 10:47:42;;;;;;;25.38;14.65;;;;;;;8.35;61.56;101127.75;4947555;28;123755;-62
2021/11/25 10:50:13;;;;;;;25.45;14.43;;;;;;;8.37;61.76;101125.91;4946637;28;114758;-62
2021/11/25 10:52:44;;;;;;;24.40;14.48;;;;;;;8.37;61.34;101120.63;4941103;28;114548;-62
2021/11/25 10:55:14;;;;;;;23.80;13.35;;;;;;;8.36;61.61;101118.94;4930468;28;124259;-62
2021/11/25 10:57:46;;;;;;;26.27;14.18;;;;;;;8.35;61.51;101121.59;4931101;28;123912;-61
2021/11/25 11:00:23;;;;;;;26.05;14.45;;;;;;;8.33;61.64;101108.44;4932008;28;115818;-62
2021/11/25 11:03:09;;;;;;;25.45;14.80;;;;;;;8.33;61.68;101108.44;4932241;28;114186;-62
2021/11/25 11:05:48;;;;;;;;;;;;;;;8.33;61.66;101113.72;4922155;28;124625;-62
2021/11/25 11:08:16;;;;;;;25.30;13.88;;;;;;;8.35;61.78;101109.28;4919257;28;124434;-62
2021/11/25 11:10:54;;;;;;;25.50;14.05;;;;;;;8.38;61.60;101108.28;4922457;28;115036;-62
2021/11/25 11:21:29;;;;;;;23.60;13.88;;;;;;;8.48;61.72;101122.13;4929916;28;114094;-62
2021/11/25 11:23:58;;;;;;;28.33;15.07;;;;;;;8.49;62.01;101113.28;4936097;28;113937;-62
2021/11/25 11:26:26;;;;;;;24.23;14.57;;;;;;;8.51;61.32;101116.72;4929710;28;122915;-62
2021/11/25 11:28:53;;;;;;;24.42;14.05;;;;;;;8.52;61.63;101107.91;4921358;28;123761;-62
2021/11/25 11:31:21;;;;;;;26.20;15.43;;;;;;;8.55;61.69;101110.44;4930783;28;114848;-61
2021/11/25 11:33:48;;;;;;;27.83;15.13;;;;;;;8.57;61.95;101113.91;4945715;28;114167;-62
2021/11/25 11:36:20;;;;;;;27.27;15.10;;;;;;;8.61;61.67;101122.56;4935006;28;122783;-62